createdAt,value
2022-12-11T00:00:30.448Z,48.88
2022-12-11T00:02:58.236Z,61.78
2022-12-11T00:05:26.026Z,65.53
2022-12-11T00:07:54.115Z,66.40
2022-12-11T00:10:21.606Z,74.18
2022-12-11T00:12:49.152Z,62.50
2022-12-11T00:15:16.444Z,75.68
2022-12-11T00:17:46.366Z,69.25
2022-12-11T00:20:15.111Z,66.25
2022-12-11T00:22:42.438Z,78.20
2022-12-11T00:25:10.166Z,81.72
2022-12-11T00:27:37.848Z,70.55
2022-12-11T00:30:06.475Z,56.72
2022-12-11T00:32:37.611Z,72.97
2022-12-11T00:35:05.550Z,78.35
2022-12-11T00:37:32.958Z,63.25
2022-12-11T00:40:00.268Z,66.53
2022-12-11T00:42:27.730Z,57.58
2022-12-11T00:44:56.410Z,68.57
2022-12-11T00:47:24.219Z,57.08
2022-12-11T00:49:52.907Z,66.32
2022-12-11T00:52:20.152Z,66.68
2022-12-11T00:54:47.773Z,66.82
2022-12-11T00:57:15.141Z,68.32
2022-12-11T00:59:42.933Z,111.57
2022-12-11T01:02:10.390Z,60.55
2022-12-11T01:04:37.728Z,59.38
2022-12-11T01:07:05.198Z,73.30
2022-12-11T01:09:51.068Z,57.03
2022-12-11T01:12:18.309Z,70.18
2022-12-11T01:14:45.674Z,57.25
2022-12-11T01:17:12.924Z,58.53
2022-12-11T01:19:40.209Z,68.35
2022-12-11T01:22:07.628Z,53.25
2022-12-11T01:24:34.944Z,58.30
2022-12-11T01:27:02.550Z,61.72
2022-12-11T01:29:30.102Z,61.75
2022-12-11T01:31:57.346Z,64.82
2022-12-11T01:34:24.638Z,74.15
2022-12-11T01:36:54.869Z,74.88
2022-12-11T01:39:22.198Z,64.78
2022-12-11T01:41:49.530Z,69.05
2022-12-11T01:44:16.841Z,73.72
2022-12-11T01:46:44.166Z,67.13
2022-12-11T01:49:14.082Z,71.22
2022-12-11T01:51:52.087Z,62.30
2022-12-11T01:54:23.647Z,47.22
2022-12-11T01:56:55.790Z,52.65
2022-12-11T01:59:27.169Z,52.47
2022-12-11T02:02:04.298Z,57.42
2022-12-11T02:04:33.160Z,50.60
2022-12-11T02:07:00.547Z,46.60
2022-12-11T02:09:33.942Z,54.72
2022-12-11T02:12:32.401Z,44.67
2022-12-11T02:15:27.617Z,57.78
2022-12-11T02:18:05.673Z,58.70
2022-12-11T02:20:57.841Z,68.85
2022-12-11T02:23:43.462Z,47.72
2022-12-11T02:26:38.774Z,45.95
2022-12-11T02:29:13.472Z,56.63
2022-12-11T02:31:54.709Z,49.30
2022-12-11T02:34:37.542Z,50.55
2022-12-11T02:37:09.730Z,51.90
2022-12-11T02:39:41.875Z,47.97
2022-12-11T02:42:11.587Z,46.17
2022-12-11T02:44:41.185Z,31.80
2022-12-11T02:47:15.264Z,49.25
2022-12-11T02:49:47.452Z,52.00
2022-12-11T02:52:18.774Z,56.75
2022-12-11T02:54:47.785Z,43.92
2022-12-11T02:57:33.326Z,42.60
2022-12-11T03:00:01.148Z,47.92
2022-12-11T03:02:28.723Z,50.45
2022-12-11T03:04:58.772Z,38.08
2022-12-11T03:07:34.153Z,53.10
2022-12-11T03:10:01.549Z,41.55
2022-12-11T03:12:38.491Z,42.40
2022-12-11T03:15:10.852Z,46.97
2022-12-11T03:18:04.950Z,44.63
2022-12-11T03:20:38.843Z,40.28
2022-12-11T03:23:22.775Z,42.28
2022-12-11T03:26:13.891Z,36.88
2022-12-11T03:29:02.656Z,50.30
2022-12-11T03:31:38.035Z,41.00
2022-12-11T03:34:16.591Z,47.83
2022-12-11T03:36:48.028Z,49.97
2022-12-11T03:39:45.885Z,43.17
2022-12-11T03:42:16.042Z,49.22
2022-12-11T03:44:49.666Z,48.22
2022-12-11T03:47:24.288Z,45.63
2022-12-11T03:49:56.301Z,41.88
2022-12-11T03:52:26.402Z,48.67
2022-12-11T03:54:58.142Z,52.47
2022-12-11T03:57:31.176Z,51.38
2022-12-11T03:59:58.924Z,55.53
2022-12-11T04:02:26.248Z,49.05
2022-12-11T04:04:54.184Z,51.03
2022-12-11T04:07:21.988Z,42.53
2022-12-11T04:09:50.573Z,46.53
2022-12-11T04:12:18.074Z,49.20
2022-12-11T04:15:03.582Z,48.33
2022-12-11T04:17:58.196Z,49.72
2022-12-11T04:20:44.048Z,42.08
2022-12-11T04:23:33.254Z,50.88
2022-12-11T04:26:09.990Z,45.92
2022-12-11T04:28:38.500Z,40.08
2022-12-11T04:31:06.393Z,46.97
2022-12-11T04:33:34.772Z,47.75
2022-12-11T04:36:02.502Z,50.97
2022-12-11T04:38:30.120Z,46.15
2022-12-11T04:41:09.091Z,43.38
2022-12-11T04:43:36.835Z,44.50
2022-12-11T04:46:05.720Z,51.15
2022-12-11T04:48:33.502Z,51.65
2022-12-11T04:51:01.545Z,54.00
2022-12-11T04:53:30.074Z,56.17
2022-12-11T04:55:57.815Z,51.53
2022-12-11T04:58:26.703Z,54.05
2022-12-11T05:00:55.647Z,54.38
2022-12-11T05:03:23.086Z,51.25
2022-12-11T05:05:53.303Z,51.38
2022-12-11T05:08:30.104Z,54.28
2022-12-11T05:11:00.616Z,53.42
2022-12-11T05:13:29.300Z,53.67
2022-12-11T05:15:57.358Z,50.00
2022-12-11T05:18:25.154Z,59.35
2022-12-11T05:21:05.737Z,50.75
2022-12-11T05:23:34.062Z,51.65
2022-12-11T05:26:04.266Z,51.60
2022-12-11T05:28:35.147Z,42.80
2022-12-11T05:33:32.402Z,46.70
2022-12-11T05:36:00.463Z,53.90
2022-12-11T05:38:27.905Z,47.35
2022-12-11T05:41:00.278Z,54.30
2022-12-11T05:43:30.243Z,43.60
2022-12-11T05:46:09.212Z,48.70
2022-12-11T05:48:40.195Z,45.72
2022-12-11T05:51:08.696Z,55.05
2022-12-11T05:53:38.262Z,47.33
2022-12-11T05:56:08.892Z,58.83
2022-12-11T05:58:36.205Z,49.63
2022-12-11T06:01:07.967Z,49.47
2022-12-11T06:03:37.058Z,46.90
2022-12-11T06:06:05.445Z,63.05
2022-12-11T06:08:34.070Z,56.55
2022-12-11T06:11:01.953Z,51.38
2022-12-11T06:13:30.354Z,46.67
2022-12-11T06:16:07.016Z,54.53
2022-12-11T06:18:39.870Z,48.38
2022-12-11T06:21:14.669Z,43.85
2022-12-11T06:23:43.669Z,49.15
2022-12-11T06:26:11.706Z,52.40
2022-12-11T06:28:40.067Z,50.53
2022-12-11T06:31:08.212Z,46.47
2022-12-11T06:33:35.576Z,45.90
2022-12-11T06:36:05.551Z,54.80
2022-12-11T06:38:32.978Z,46.10
2022-12-11T06:41:05.177Z,39.58
2022-12-11T06:43:33.648Z,51.80
2022-12-11T06:46:08.121Z,45.90
2022-12-11T06:48:35.989Z,54.25
2022-12-11T06:51:08.260Z,50.00
2022-12-11T06:53:37.083Z,43.72
2022-12-11T06:56:14.034Z,49.10
2022-12-11T06:58:43.197Z,51.95
2022-12-11T07:01:19.845Z,47.80
2022-12-11T07:03:49.269Z,55.05
2022-12-11T07:06:19.725Z,56.17
2022-12-11T07:08:47.106Z,56.20
2022-12-11T07:11:17.002Z,51.30
2022-12-11T07:13:44.687Z,37.67
2022-12-11T07:16:13.956Z,53.10
2022-12-11T07:18:44.343Z,42.95
2022-12-11T07:21:13.572Z,51.03
2022-12-11T07:23:43.483Z,51.97
2022-12-11T07:26:14.072Z,53.42
2022-12-11T07:28:42.794Z,54.10
2022-12-11T07:31:19.272Z,52.35
2022-12-11T07:33:58.665Z,52.80
2022-12-11T07:36:27.625Z,50.40
2022-12-11T07:38:58.477Z,48.88
2022-12-11T07:41:27.835Z,51.83
2022-12-11T07:43:56.554Z,59.78
2022-12-11T07:46:26.989Z,54.03
2022-12-11T07:48:55.518Z,48.42
2022-12-11T07:51:28.253Z,52.13
2022-12-11T07:54:00.434Z,48.78
2022-12-11T07:56:30.157Z,50.85
2022-12-11T08:01:36.470Z,53.90
2022-12-11T08:04:05.990Z,58.83
2022-12-11T08:06:40.240Z,53.38
2022-12-11T08:09:09.855Z,50.22
2022-12-11T08:11:38.473Z,49.20
2022-12-11T08:14:06.756Z,42.80
2022-12-11T08:16:34.025Z,47.72
2022-12-11T08:19:01.277Z,47.78
2022-12-11T08:21:29.287Z,50.33
2022-12-11T08:23:56.679Z,39.63
2022-12-11T08:26:29.247Z,45.90
2022-12-11T08:28:57.371Z,47.65
2022-12-11T08:31:25.417Z,42.25
2022-12-11T08:33:52.932Z,42.78
2022-12-11T08:36:22.946Z,40.70
2022-12-11T08:38:51.951Z,44.92
2022-12-11T08:41:30.196Z,46.05
2022-12-11T08:44:00.330Z,40.85
2022-12-11T08:46:30.440Z,49.00
2022-12-11T08:48:58.472Z,30.25
2022-12-11T08:51:27.291Z,45.38
2022-12-11T08:54:00.257Z,37.85
2022-12-11T08:56:28.744Z,41.38
2022-12-11T08:58:56.147Z,39.05
2022-12-11T09:01:25.745Z,39.78
2022-12-11T09:03:55.480Z,35.38
2022-12-11T09:06:25.155Z,40.00
2022-12-11T09:08:54.136Z,39.67
2022-12-11T09:11:27.399Z,35.60
2022-12-11T09:13:56.368Z,40.92
2022-12-11T09:16:25.715Z,43.55
2022-12-11T09:18:56.111Z,37.05
2022-12-11T09:21:26.775Z,41.60
2022-12-11T09:24:00.224Z,38.28
2022-12-11T09:26:28.879Z,34.65
2022-12-11T09:28:56.648Z,38.70
2022-12-11T09:31:30.203Z,39.08
2022-12-11T09:34:00.079Z,38.55
2022-12-11T09:36:28.570Z,30.05
2022-12-11T09:38:59.744Z,43.90
2022-12-11T09:44:11.197Z,37.13
2022-12-11T09:46:40.852Z,42.53
2022-12-11T09:49:32.290Z,33.70
2022-12-11T09:52:04.294Z,35.88
2022-12-11T09:54:32.442Z,33.08
2022-12-11T09:57:20.350Z,32.70
2022-12-11T10:00:15.399Z,37.85
2022-12-11T10:03:09.483Z,39.78
2022-12-11T10:05:48.584Z,42.47
2022-12-11T10:08:28.068Z,35.67
2022-12-11T10:11:21.972Z,37.58
2022-12-11T10:13:58.566Z,43.45
2022-12-11T10:17:09.115Z,35.35
2022-12-11T10:19:36.539Z,36.80
2022-12-11T10:22:04.184Z,38.63
2022-12-11T10:27:33.879Z,41.00
2022-12-11T10:30:14.632Z,44.17
2022-12-11T10:35:20.300Z,42.03
2022-12-11T10:37:47.584Z,35.72
2022-12-11T10:40:15.047Z,41.90
2022-12-11T10:42:55.967Z,40.17
2022-12-11T10:45:23.202Z,42.72
2022-12-11T10:47:50.512Z,42.38
2022-12-11T10:50:26.324Z,43.95
2022-12-11T10:52:53.808Z,44.75
2022-12-11T10:55:25.023Z,42.75
2022-12-11T10:58:03.661Z,45.53
2022-12-11T11:00:41.976Z,42.78
2022-12-11T11:03:28.016Z,41.25
2022-12-11T11:06:22.470Z,46.97
2022-12-11T11:08:53.520Z,39.95
2022-12-11T11:11:36.928Z,47.55
2022-12-11T11:14:16.990Z,37.55
2022-12-11T11:16:50.470Z,43.42
2022-12-11T11:19:29.322Z,38.67
2022-12-11T11:21:59.759Z,39.88
2022-12-11T11:24:29.035Z,48.28
2022-12-11T11:27:13.213Z,42.40
2022-12-11T11:29:47.744Z,43.97
2022-12-11T11:32:39.786Z,48.55
2022-12-11T11:35:13.523Z,41.83
2022-12-11T11:37:46.961Z,40.75
2022-12-11T11:40:17.154Z,46.67
2022-12-11T11:43:09.216Z,44.65
2022-12-11T11:45:39.628Z,37.47
2022-12-11T11:48:20.762Z,44.08
2022-12-11T11:50:50.653Z,43.30
2022-12-11T11:53:43.900Z,47.10
2022-12-11T11:56:21.949Z,38.50
2022-12-11T11:59:19.130Z,43.10
2022-12-11T12:01:47.578Z,43.20
2022-12-11T12:04:15.138Z,41.63
2022-12-11T12:06:58.261Z,40.25
2022-12-11T12:09:25.571Z,41.22
2022-12-11T12:12:26.603Z,42.10
2022-12-11T12:15:20.852Z,38.30
2022-12-11T12:17:56.490Z,42.50
2022-12-11T12:20:39.085Z,39.78
2022-12-11T12:23:42.877Z,43.88
2022-12-11T12:26:33.270Z,44.83
2022-12-11T12:29:21.416Z,43.10
2022-12-11T12:32:00.964Z,44.45
2022-12-11T12:34:31.164Z,42.67
2022-12-11T12:37:04.473Z,43.15
2022-12-11T12:39:50.625Z,52.05
2022-12-11T12:42:30.107Z,40.95
2022-12-11T12:45:14.240Z,41.55
2022-12-11T12:47:48.867Z,40.67
2022-12-11T12:50:23.814Z,42.30
2022-12-11T12:52:55.354Z,42.63
2022-12-11T12:55:25.945Z,45.15
2022-12-11T12:58:01.603Z,41.47
2022-12-11T13:00:41.753Z,45.88
2022-12-11T13:03:21.949Z,45.58
2022-12-11T13:06:00.502Z,44.80
2022-12-11T13:08:31.264Z,44.53
2022-12-11T13:13:51.555Z,46.83
2022-12-11T13:16:34.698Z,47.78
2022-12-11T13:19:02.164Z,39.13
2022-12-11T13:21:36.348Z,44.47
2022-12-11T13:24:22.147Z,43.25
2022-12-11T13:26:51.095Z,40.42
2022-12-11T13:29:42.579Z,44.38
2022-12-11T13:32:09.795Z,49.25
2022-12-11T13:34:43.227Z,40.03
2022-12-11T13:37:41.282Z,46.00
2022-12-11T13:40:18.961Z,43.67
2022-12-11T13:43:03.138Z,46.78
2022-12-11T13:45:38.988Z,44.25
2022-12-11T13:48:20.568Z,53.53
2022-12-11T13:50:49.780Z,45.63
2022-12-11T13:53:21.048Z,52.15
2022-12-11T13:56:00.977Z,48.83
2022-12-11T13:58:28.973Z,55.42
2022-12-11T14:01:11.476Z,45.35
2022-12-11T14:03:59.037Z,62.80
2022-12-11T14:06:28.825Z,76.10
2022-12-11T14:09:00.696Z,45.00
2022-12-11T14:11:42.603Z,47.78
2022-12-11T14:14:21.929Z,52.92
2022-12-11T14:16:51.592Z,48.25
2022-12-11T14:19:21.570Z,66.13
2022-12-11T14:22:04.237Z,49.40
2022-12-11T14:24:32.086Z,48.08
2022-12-11T14:27:00.247Z,47.00
2022-12-11T14:29:34.338Z,49.15
2022-12-11T14:32:05.122Z,45.65
2022-12-11T14:37:08.321Z,47.78
2022-12-11T14:40:07.225Z,47.40
2022-12-11T14:43:00.313Z,41.20
2022-12-11T14:45:36.359Z,43.28
2022-12-11T14:48:12.207Z,41.53
2022-12-11T14:50:44.049Z,39.47
2022-12-11T14:53:17.564Z,45.63
2022-12-11T14:55:48.991Z,45.85
2022-12-11T14:58:22.630Z,49.40
2022-12-11T15:01:06.784Z,42.28
2022-12-11T15:03:37.459Z,43.38
2022-12-11T15:06:23.683Z,42.58
2022-12-11T15:08:51.134Z,44.38
2022-12-11T15:11:19.154Z,46.22
2022-12-11T15:13:58.815Z,48.60
2022-12-11T15:16:29.489Z,42.30
2022-12-11T15:21:32.296Z,45.22
2022-12-11T15:24:05.582Z,46.80
2022-12-11T15:26:44.531Z,41.40
2022-12-11T15:29:30.634Z,50.92
2022-12-11T15:32:03.901Z,45.33
2022-12-11T15:34:46.029Z,51.92
2022-12-11T15:37:33.537Z,48.10
2022-12-11T15:40:02.876Z,48.03
2022-12-11T15:42:41.946Z,48.83
2022-12-11T15:45:16.718Z,49.70
2022-12-11T15:47:45.317Z,52.85
2022-12-11T15:50:21.725Z,50.17
2022-12-11T15:52:50.686Z,53.60
2022-12-11T15:55:19.429Z,51.53
2022-12-11T15:58:00.026Z,48.65
2022-12-11T16:00:28.392Z,46.42
2022-12-11T16:02:57.263Z,48.97
2022-12-11T16:05:26.000Z,52.25
2022-12-11T16:07:55.244Z,55.38
2022-12-11T16:10:22.583Z,47.30
2022-12-11T16:12:50.379Z,44.15
2022-12-11T16:15:23.547Z,51.03
2022-12-11T16:17:59.646Z,52.25
2022-12-11T16:20:26.945Z,52.42
2022-12-11T16:22:55.301Z,45.50
2022-12-11T16:25:22.813Z,51.17
2022-12-11T16:27:50.666Z,50.95
2022-12-11T16:30:18.027Z,49.30
2022-12-11T16:32:45.658Z,54.45
2022-12-11T16:35:13.452Z,54.40
2022-12-11T16:37:41.676Z,60.60
2022-12-11T16:40:09.769Z,48.50
2022-12-11T16:42:38.372Z,50.78
2022-12-11T16:45:09.253Z,48.53
2022-12-11T16:47:36.743Z,49.03
2022-12-11T16:50:05.350Z,48.75
2022-12-11T16:52:33.457Z,50.53
2022-12-11T16:55:00.925Z,51.60
2022-12-11T16:57:28.380Z,55.55
2022-12-11T16:59:55.879Z,56.33
2022-12-11T17:02:23.559Z,57.85
2022-12-11T17:04:54.040Z,52.67
2022-12-11T17:09:48.622Z,57.38
2022-12-11T17:12:16.386Z,48.67
2022-12-11T17:14:43.854Z,53.67
2022-12-11T17:17:11.334Z,59.40
2022-12-11T17:19:38.639Z,55.58
2022-12-11T17:22:05.888Z,53.00
2022-12-11T17:24:33.627Z,53.63
2022-12-11T17:27:01.172Z,51.47
2022-12-11T17:29:31.235Z,54.45
2022-12-11T17:31:58.805Z,52.97
2022-12-11T17:34:26.302Z,60.50
2022-12-11T17:36:55.929Z,49.17
2022-12-11T17:39:23.182Z,47.55
2022-12-11T17:41:50.444Z,43.53
2022-12-11T17:44:17.690Z,53.80
2022-12-11T17:46:45.356Z,49.22
2022-12-11T17:49:13.185Z,58.70
2022-12-11T17:51:40.386Z,51.95
2022-12-11T17:54:07.729Z,49.63
2022-12-11T17:56:36.210Z,54.78
2022-12-11T17:59:03.989Z,50.35
2022-12-11T18:01:31.481Z,51.58
2022-12-11T18:04:01.503Z,52.45
2022-12-11T18:06:29.851Z,59.37
2022-12-11T18:08:58.174Z,47.15
2022-12-11T18:11:25.542Z,47.15
2022-12-11T18:13:55.930Z,41.88
2022-12-11T18:16:29.665Z,56.72
2022-12-11T18:18:57.455Z,52.38
2022-12-11T18:21:30.522Z,51.97
2022-12-11T18:23:58.322Z,52.17
2022-12-11T18:26:25.946Z,49.15
2022-12-11T18:28:55.402Z,43.88
2022-12-11T18:31:23.676Z,48.63
2022-12-11T18:33:52.130Z,49.22
2022-12-11T18:36:20.829Z,49.47
2022-12-11T18:38:48.731Z,51.58
2022-12-11T18:41:17.923Z,45.72
2022-12-11T18:43:45.690Z,49.97
2022-12-11T18:46:16.576Z,49.78
2022-12-11T18:48:44.807Z,46.13
2022-12-11T18:51:17.326Z,46.03
2022-12-11T18:53:45.584Z,49.83
2022-12-11T18:56:15.819Z,44.70
2022-12-11T18:58:43.044Z,45.08
2022-12-11T19:01:20.196Z,52.72
2022-12-11T19:03:48.483Z,48.63
2022-12-11T19:09:06.266Z,49.65
2022-12-11T19:11:34.970Z,47.38
2022-12-11T19:14:04.388Z,48.63
2022-12-11T19:16:41.478Z,49.70
2022-12-11T19:19:16.677Z,40.55
2022-12-11T19:21:44.650Z,40.28
2022-12-11T19:24:15.241Z,44.55
2022-12-11T19:26:43.928Z,46.95
2022-12-11T19:29:20.116Z,52.05
2022-12-11T19:31:47.963Z,52.15
2022-12-11T19:34:15.748Z,47.55
2022-12-11T19:36:43.574Z,49.00
2022-12-11T19:39:13.198Z,48.88
2022-12-11T19:41:43.852Z,53.28
2022-12-11T19:44:12.032Z,56.38
2022-12-11T19:46:39.352Z,50.40
2022-12-11T19:49:06.753Z,49.67
2022-12-11T19:51:39.353Z,51.63
2022-12-11T19:54:08.663Z,48.35
2022-12-11T19:56:36.529Z,50.78
2022-12-11T19:59:06.840Z,49.28
2022-12-11T20:01:36.419Z,48.53
2022-12-11T20:04:07.221Z,50.63
2022-12-11T20:06:37.576Z,44.58
2022-12-11T20:09:07.604Z,50.55
2022-12-11T20:11:34.842Z,42.87
2022-12-11T20:14:02.130Z,43.53
2022-12-11T20:16:53.777Z,65.38
2022-12-11T20:19:17.216Z,52.95
2022-12-11T20:21:44.578Z,48.17
2022-12-11T20:24:13.166Z,54.20
2022-12-11T20:26:40.506Z,54.92
2022-12-11T20:29:08.410Z,63.70
2022-12-11T20:31:36.930Z,49.65
2022-12-11T20:34:04.819Z,53.83
2022-12-11T20:36:33.009Z,44.00
2022-12-11T20:39:00.667Z,48.22
2022-12-11T20:41:28.172Z,42.95
2022-12-11T20:43:55.683Z,46.03
2022-12-11T20:46:27.204Z,54.70
2022-12-11T20:48:58.766Z,45.47
2022-12-11T20:51:27.032Z,39.40
2022-12-11T20:53:59.246Z,48.75
2022-12-11T20:56:29.723Z,47.95
2022-12-11T20:58:59.374Z,44.13
2022-12-11T21:01:34.868Z,48.20
2022-12-11T21:04:02.861Z,45.17
2022-12-11T21:06:33.343Z,46.63
2022-12-11T21:09:05.549Z,48.53
2022-12-11T21:11:32.946Z,49.30
2022-12-11T21:14:00.250Z,43.15
2022-12-11T21:16:27.731Z,45.92
2022-12-11T21:18:59.245Z,50.20
2022-12-11T21:21:26.869Z,46.97
2022-12-11T21:23:55.379Z,46.38
2022-12-11T21:26:22.753Z,41.17
2022-12-11T21:28:50.781Z,43.47
2022-12-11T21:31:20.165Z,44.35
2022-12-11T21:33:48.057Z,42.40
2022-12-11T21:36:16.531Z,44.65
2022-12-11T21:38:45.461Z,48.13
2022-12-11T21:41:19.168Z,40.40
2022-12-11T21:46:39.528Z,44.28
2022-12-11T21:49:08.560Z,41.78
2022-12-11T21:51:42.684Z,39.05
2022-12-11T21:54:16.955Z,42.63
2022-12-11T21:56:45.631Z,48.75
2022-12-11T21:59:16.169Z,43.45
2022-12-11T22:01:46.259Z,46.90
2022-12-11T22:04:16.936Z,37.53
2022-12-11T22:06:47.342Z,48.47
2022-12-11T22:09:18.653Z,41.90
2022-12-11T22:11:47.006Z,48.53
2022-12-11T22:14:18.097Z,46.05
2022-12-11T22:16:46.713Z,48.10
2022-12-11T22:19:14.276Z,45.03
2022-12-11T22:21:42.856Z,47.88
2022-12-11T22:24:11.436Z,44.58
2022-12-11T22:26:39.315Z,47.35
2022-12-11T22:29:07.006Z,43.17
2022-12-11T22:31:34.405Z,52.78
2022-12-11T22:34:02.599Z,46.42
2022-12-11T22:36:30.211Z,44.25
2022-12-11T22:39:00.180Z,44.53
2022-12-11T22:41:32.944Z,39.88
2022-12-11T22:44:00.645Z,46.35
2022-12-11T22:46:29.951Z,44.05
2022-12-11T22:48:59.212Z,44.70
2022-12-11T22:51:26.729Z,42.90
2022-12-11T22:54:00.413Z,41.42
2022-12-11T22:56:27.831Z,40.38
2022-12-11T22:58:57.681Z,44.42
2022-12-11T23:01:26.676Z,44.60
2022-12-11T23:03:54.748Z,49.28
2022-12-11T23:06:25.048Z,45.03
2022-12-11T23:08:55.774Z,42.67
2022-12-11T23:11:30.397Z,46.25
2022-12-11T23:13:58.032Z,41.78
2022-12-11T23:16:27.105Z,40.40
2022-12-11T23:18:57.558Z,44.33
2022-12-11T23:21:27.682Z,43.42
2022-12-11T23:23:57.578Z,35.90
2022-12-11T23:26:27.364Z,49.78
2022-12-11T23:28:57.014Z,30.90
2022-12-11T23:31:26.587Z,46.47
2022-12-11T23:33:57.669Z,53.45
2022-12-11T23:36:26.541Z,44.20
2022-12-11T23:38:55.231Z,49.90
2022-12-11T23:41:23.634Z,46.63
2022-12-11T23:43:51.232Z,41.10
2022-12-11T23:46:21.813Z,43.95
2022-12-11T23:48:49.988Z,45.13
2022-12-11T23:51:19.268Z,43.80
2022-12-11T23:53:50.653Z,45.10
2022-12-11T23:56:24.518Z,36.03
2022-12-11T23:58:52.522Z,46.78
